Time;durP1;ratioP1;P1;durP2;ratioP2;P2;SDS_P1;SDS_P2;PMS_P1;PMS_P2;Temp;Humidity;BMP_temperature;BMP_pressure;BME280_temperature;BME280_humidity;BME280_pressure;Samples;Min_cycle;Max_cycle;Signal;HPM_P1;HPM_P2
2022/11/22 00:02:08;;;;;;;36.50;21.30;;;3.30;99.90;;;;;;4993419;28;20042;-56
2022/11/22 00:04:33;;;;;;;42.13;22.50;;;3.30;99.90;;;;;;5007580;28;20042;-58
2022/11/22 00:06:59;;;;;;;33.53;20.57;;;3.30;99.90;;;;;;4997956;28;20038;-57
2022/11/22 00:09:24;;;;;;;44.50;23.67;;;3.30;99.90;;;;;;4993371;28;20038;-57
2022/11/22 00:11:50;;;;;;;46.17;23.77;;;3.30;99.90;;;;;;4993393;28;20049;-57
2022/11/22 00:14:16;;;;;;;37.67;22.33;;;3.30;99.90;;;;;;4991677;28;20069;-60
2022/11/22 00:16:41;;;;;;;39.50;23.23;;;3.40;99.90;;;;;;4994008;28;20046;-56
2022/11/22 00:19:08;;;;;;;42.10;22.53;;;3.30;99.90;;;;;;4993778;28;20042;-55
2022/11/22 00:21:34;;;;;;;43.70;22.80;;;3.40;99.90;;;;;;4993226;28;20060;-57
2022/11/22 00:23:59;;;;;;;42.20;22.27;;;3.40;99.90;;;;;;4992955;28;20030;-58
2022/11/22 00:26:25;;;;;;;40.83;22.40;;;3.40;99.90;;;;;;4993965;28;20547;-57
2022/11/22 00:28:51;;;;;;;;;;;3.40;99.90;;;;;;4993301;28;20046;-56
2022/11/22 00:31:17;;;;;;;43.22;22.30;;;3.40;99.90;;;;;;4992552;28;19928;-57
2022/11/22 00:33:43;;;;;;;39.77;24.77;;;3.50;99.90;;;;;;4991602;28;20041;-58
2022/11/22 00:36:08;;;;;;;36.50;20.67;;;3.50;99.90;;;;;;4992725;28;20081;-57
2022/11/22 00:38:34;;;;;;;38.10;21.40;;;3.50;99.90;;;;;;4992139;28;20096;-58
2022/11/22 00:40:59;;;;;;;37.23;20.93;;;3.50;99.90;;;;;;4991566;28;20042;-59
2022/11/22 00:43:25;;;;;;;37.97;22.60;;;3.50;99.90;;;;;;4992215;28;20121;-57
2022/11/22 00:45:50;;;;;;;39.80;23.73;;;3.50;99.90;;;;;;4992298;28;20049;-57
2022/11/22 00:48:16;;;;;;;41.40;21.80;;;3.60;99.90;;;;;;4993735;28;20065;-58
2022/11/22 00:50:41;;;;;;;37.67;23.77;;;3.60;99.90;;;;;;4992791;28;20050;-54
2022/11/22 00:53:07;;;;;;;38.47;23.80;;;3.60;99.90;;;;;;5005861;28;20046;-58
2022/11/22 00:55:32;;;;;;;40.33;24.60;;;3.60;99.90;;;;;;5012060;28;20038;-55
2022/11/22 00:57:58;;;;;;;41.33;24.10;;;3.60;99.90;;;;;;5011423;28;20049;-58
2022/11/22 01:00:23;;;;;;;42.63;24.60;;;3.60;99.90;;;;;;5009959;28;20121;-56
2022/11/22 01:02:49;;;;;;;47.60;24.77;;;3.60;99.90;;;;;;5011833;28;20125;-55
2022/11/22 01:05:16;;;;;;;46.80;25.00;;;3.60;99.90;;;;;;5011061;28;20144;-58
2022/11/22 01:07:42;;;;;;;43.28;24.42;;;3.60;99.90;;;;;;5011827;28;20064;-55
2022/11/22 01:10:08;;;;;;;43.20;23.70;;;3.60;99.90;;;;;;5000860;28;20511;-56
2022/11/22 01:12:34;;;;;;;44.92;26.77;;;3.60;99.90;;;;;;4992055;28;20043;-55
2022/11/22 01:15:00;;;;;;;44.58;25.40;;;3.60;99.90;;;;;;4991275;28;20050;-53
2022/11/22 01:17:26;;;;;;;44.03;24.88;;;3.70;99.90;;;;;;4992127;28;20046;-57
2022/11/22 01:19:52;;;;;;;49.28;27.30;;;3.70;99.90;;;;;;4998007;28;20372;-56
2022/11/22 01:22:17;;;;;;;45.93;25.37;;;3.60;99.90;;;;;;5011464;28;20113;-58
2022/11/22 01:24:43;;;;;;;42.77;23.80;;;3.70;99.90;;;;;;5009700;28;20499;-57
2022/11/22 01:27:08;;;;;;;43.83;26.83;;;3.70;99.90;;;;;;5010977;28;20052;-56
2022/11/22 01:29:34;;;;;;;45.53;25.60;;;3.70;99.90;;;;;;5009821;28;20045;-58
2022/11/22 01:31:59;;;;;;;44.47;26.37;;;3.70;99.90;;;;;;5010857;28;20088;-56
2022/11/22 01:34:25;;;;;;;44.80;24.07;;;3.70;99.90;;;;;;5010973;28;20531;-54
2022/11/22 01:36:50;;;;;;;47.20;23.23;;;3.70;99.90;;;;;;5011216;28;20046;-55
2022/11/22 01:39:16;;;;;;;43.97;24.60;;;3.70;99.90;;;;;;5011391;28;20455;-53
2022/11/22 01:41:42;;;;;;;44.87;24.07;;;3.80;99.90;;;;;;5009565;28;20057;-53
2022/11/22 01:44:27;;;;;;;41.60;25.03;;;3.80;99.90;;;;;;4991945;28;20475;-56
2022/11/22 01:47:15;;;;;;;38.15;25.23;;;3.80;99.90;;;;;;4991622;28;20313;-57
2022/11/22 01:49:47;;;;;;;40.67;23.67;;;3.80;99.90;;;;;;4990825;28;20038;-58
2022/11/22 01:52:18;;;;;;;43.03;23.88;;;3.80;99.90;;;;;;4992725;28;20381;-57
2022/11/22 01:54:49;;;;;;;36.20;23.45;;;3.90;99.90;;;;;;4991272;28;20038;-54
2022/11/22 01:57:19;;;;;;;41.67;21.90;;;3.90;99.90;;;;;;4991374;28;20038;-57
2022/11/22 01:59:50;;;;;;;39.42;24.38;;;3.90;99.90;;;;;;4991269;28;20492;-59
2022/11/22 02:02:16;;;;;;;39.63;21.98;;;3.90;99.90;;;;;;4992167;28;20035;-58
2022/11/22 02:04:43;;;;;;;36.63;22.40;;;4.00;99.90;;;;;;5002234;28;20045;-58
2022/11/22 02:07:40;;;;;;;41.65;23.90;;;4.00;99.90;;;;;;4999135;28;20290;-56
2022/11/22 02:10:06;;;;;;;39.28;21.83;;;4.00;99.90;;;;;;4990656;28;20097;-57
2022/11/22 02:12:34;;;;;;;41.83;24.23;;;4.00;99.90;;;;;;4991942;28;20038;-57
2022/11/22 02:14:59;;;;;;;38.28;22.75;;;4.00;99.90;;;;;;4990735;28;20078;-59
2022/11/22 02:17:26;;;;;;;37.30;22.20;;;4.00;99.90;;;;;;4990326;28;20084;-57
2022/11/22 02:19:52;;;;;;;47.58;23.80;;;4.00;99.90;;;;;;4991154;28;20038;-54
2022/11/22 02:22:43;;;;;;;45.05;25.92;;;4.00;99.90;;;;;;4992123;28;20030;-59
2022/11/22 02:25:26;;;;;;;40.65;22.80;;;4.00;99.90;;;;;;4990609;28;20041;-58
2022/11/22 02:27:52;;;;;;;38.25;23.77;;;4.00;99.90;;;;;;4990334;28;20497;-59
2022/11/22 02:30:18;;;;;;;39.67;23.73;;;4.00;99.90;;;;;;4991211;28;20096;-58
2022/11/22 02:32:44;;;;;;;38.35;21.63;;;4.00;99.90;;;;;;4991950;28;20077;-57
2022/11/22 02:35:22;;;;;;;39.70;21.90;;;4.00;99.90;;;;;;4989295;28;20097;-59
2022/11/22 02:37:56;;;;;;;43.13;23.23;;;4.00;99.90;;;;;;4990964;28;20126;-59
2022/11/22 02:40:22;;;;;;;39.38;23.52;;;4.00;99.90;;;;;;4989105;28;20062;-58
2022/11/22 02:42:54;;;;;;;34.28;21.10;;;4.00;99.90;;;;;;4991029;28;20042;-60
2022/11/22 02:45:20;;;;;;;42.03;24.48;;;4.10;99.90;;;;;;5010161;28;20042;-56
2022/11/22 02:47:46;;;;;;;37.37;21.83;;;4.10;99.90;;;;;;5010411;28;20545;-56
2022/11/22 02:50:11;;;;;;;42.45;22.77;;;4.10;99.90;;;;;;5010561;28;20044;-53
2022/11/22 02:52:37;;;;;;;41.63;23.83;;;4.10;99.90;;;;;;5010414;28;20038;-55
2022/11/22 02:55:03;;;;;;;41.97;23.27;;;4.10;99.90;;;;;;4993908;28;20046;-55
2022/11/22 02:57:28;;;;;;;41.20;23.15;;;4.10;99.90;;;;;;4990752;28;20117;-53
2022/11/22 02:59:54;;;;;;;39.87;21.43;;;4.10;99.90;;;;;;4991755;28;20117;-54
2022/11/22 03:02:19;;;;;;;40.67;22.90;;;4.10;99.90;;;;;;4993313;28;20070;-56
2022/11/22 03:04:45;;;;;;;47.20;23.30;;;4.10;99.90;;;;;;5004204;28;20034;-57
2022/11/22 03:07:10;;;;;;;42.20;22.60;;;4.10;99.90;;;;;;5013136;28;20037;-57
2022/11/22 03:09:36;;;;;;;45.80;23.00;;;4.10;99.90;;;;;;5013113;28;20050;-56
2022/11/22 03:12:01;;;;;;;37.20;20.80;;;4.20;99.90;;;;;;5014127;28;20026;-56
2022/11/22 03:14:27;;;;;;;39.67;22.07;;;4.20;99.90;;;;;;5007664;28;20042;-60
2022/11/22 03:16:53;;;;;;;40.03;22.33;;;4.10;99.90;;;;;;4994294;28;20045;-54
2022/11/22 03:19:18;;;;;;;45.33;23.07;;;4.20;99.90;;;;;;5005920;28;20033;-55
2022/11/22 03:21:44;;;;;;;43.23;21.90;;;4.20;99.90;;;;;;5013587;28;20034;-56
2022/11/22 03:24:10;;;;;;;42.90;21.57;;;4.20;99.90;;;;;;5004711;28;20049;-56
2022/11/22 03:26:37;;;;;;;42.15;22.08;;;4.20;99.90;;;;;;4994087;28;20042;-56
2022/11/22 03:29:03;;;;;;;;;;;4.20;99.90;;;;;;4994696;28;20073;-55
2022/11/22 03:31:28;;;;;;;37.08;20.77;;;4.30;99.90;;;;;;4994440;28;20383;-56
2022/11/22 03:33:54;;;;;;;34.60;20.93;;;4.30;99.90;;;;;;4995608;28;20465;-58
2022/11/22 03:36:20;;;;;;;33.30;19.75;;;4.30;99.90;;;;;;5013141;28;20277;-57
2022/11/22 03:38:45;;;;;;;34.67;20.43;;;4.30;99.90;;;;;;5012940;28;20040;-56
2022/11/22 03:41:11;;;;;;;39.33;21.23;;;4.30;99.90;;;;;;5013298;28;20060;-55
2022/11/22 03:43:37;;;;;;;34.60;20.33;;;4.40;99.90;;;;;;5012971;28;20046;-58
2022/11/22 03:46:03;;;;;;;34.85;21.80;;;4.40;99.90;;;;;;5011689;28;20041;-56
2022/11/22 03:48:29;;;;;;;36.60;21.60;;;4.40;99.90;;;;;;5013258;28;20454;-55
2022/11/22 03:51:02;;;;;;;34.15;20.75;;;4.40;99.90;;;;;;5012079;28;20042;-56
2022/11/22 03:53:28;;;;;;;31.75;20.88;;;4.40;99.90;;;;;;5012811;28;20481;-59
2022/11/22 03:55:53;;;;;;;36.27;21.97;;;4.50;99.90;;;;;;5011677;28;20034;-56
2022/11/22 03:58:19;;;;;;;39.27;19.83;;;4.50;99.90;;;;;;5012647;28;20120;-57
2022/11/22 04:00:44;;;;;;;30.13;20.03;;;4.60;99.90;;;;;;5013147;28;20121;-60
2022/11/22 04:03:10;;;;;;;28.37;17.50;;;4.60;99.90;;;;;;5012644;28;20121;-56
2022/11/22 04:05:35;;;;;;;28.13;16.97;;;4.60;99.90;;;;;;5011370;28;20052;-56
2022/11/22 04:08:01;;;;;;;32.23;19.03;;;4.60;99.90;;;;;;5013151;28;20414;-57
2022/11/22 04:10:26;;;;;;;38.10;19.20;;;4.60;99.90;;;;;;5013196;28;20465;-56
2022/11/22 04:12:58;;;;;;;34.27;19.23;;;4.60;99.90;;;;;;5011770;28;20064;-60
2022/11/22 04:15:25;;;;;;;29.45;19.48;;;4.60;99.90;;;;;;4999622;28;20041;-56
2022/11/22 04:17:51;;;;;;;38.15;20.85;;;4.60;99.90;;;;;;4994219;28;20523;-58
2022/11/22 04:23:15;;;;;;;33.70;20.23;;;4.70;99.90;;;;;;4992841;28;20042;-57
2022/11/22 04:25:44;;;;;;;30.27;19.50;;;4.70;99.90;;;;;;4993341;28;20039;-55
2022/11/22 04:28:11;;;;;;;31.35;19.73;;;4.70;99.90;;;;;;5005560;28;20038;-58
2022/11/22 04:33:22;;;;;;;30.42;18.98;;;4.70;99.90;;;;;;5012437;28;20046;-56
2022/11/22 04:35:48;;;;;;;30.63;18.10;;;4.80;99.90;;;;;;5012245;28;20448;-57
2022/11/22 04:38:15;;;;;;;34.30;20.48;;;4.80;99.90;;;;;;5010687;28;20041;-57
2022/11/22 04:40:42;;;;;;;32.25;19.40;;;4.80;99.90;;;;;;5011915;28;20030;-59
2022/11/22 04:45:57;;;;;;;29.83;18.48;;;4.90;99.90;;;;;;5012152;28;20042;-57
2022/11/22 04:48:23;;;;;;;25.77;19.03;;;4.90;99.90;;;;;;4999059;28;20038;-58
2022/11/22 04:53:32;;;;;;;29.88;18.90;;;4.90;99.90;;;;;;4992280;28;20081;-57
2022/11/22 04:55:58;;;;;;;33.90;21.70;;;4.90;99.90;;;;;;4998542;28;20061;-56
2022/11/22 04:58:23;;;;;;;33.83;19.63;;;4.90;99.90;;;;;;5001636;28;20049;-59
2022/11/22 05:00:49;;;;;;;33.60;20.90;;;4.90;99.90;;;;;;4992604;28;20476;-56
2022/11/22 05:03:15;;;;;;;36.17;20.60;;;4.90;99.90;;;;;;4991960;28;20038;-56
2022/11/22 05:05:42;;;;;;;39.67;21.60;;;4.90;99.90;;;;;;4992220;28;20511;-58
2022/11/22 05:08:09;;;;;;;39.75;21.50;;;4.90;99.90;;;;;;4992855;28;20042;-57
2022/11/22 05:13:21;;;;;;;39.72;22.38;;;5.00;99.90;;;;;;4991735;28;20077;-60
2022/11/22 05:15:48;;;;;;;34.53;19.95;;;5.00;99.90;;;;;;4990996;28;20129;-59
2022/11/22 05:18:13;;;;;;;35.97;22.35;;;5.00;99.90;;;;;;4993123;28;20394;-55
2022/11/22 05:20:39;;;;;;;35.00;20.90;;;5.00;99.90;;;;;;4991735;28;20117;-60
2022/11/22 05:25:49;;;;;;;35.70;19.55;;;5.10;99.90;;;;;;4992273;28;20038;-55
2022/11/22 05:28:14;;;;;;;36.83;20.77;;;5.20;99.90;;;;;;4990728;28;20496;-55
2022/11/22 05:30:40;;;;;;;31.60;19.00;;;5.20;99.90;;;;;;4992982;28;20038;-59
2022/11/22 05:33:06;;;;;;;32.35;20.23;;;5.20;99.90;;;;;;4991389;28;20046;-57
2022/11/22 05:35:32;;;;;;;35.25;19.50;;;5.30;99.90;;;;;;4991909;28;20120;-58
2022/11/22 05:37:58;;;;;;;41.10;20.87;;;5.30;99.90;;;;;;4991696;28;20057;-56
2022/11/22 05:40:24;;;;;;;30.17;18.80;;;5.30;99.90;;;;;;4992783;28;20499;-57
2022/11/22 05:42:50;;;;;;;35.72;18.95;;;5.30;99.90;;;;;;4991375;28;20149;-58
2022/11/22 05:45:16;;;;;;;35.10;18.83;;;5.30;99.90;;;;;;4991361;28;20500;-57
2022/11/22 05:47:41;;;;;;;30.35;17.63;;;5.40;99.90;;;;;;4989950;28;20293;-55
2022/11/22 05:50:07;;;;;;;33.17;18.90;;;5.30;99.90;;;;;;4993888;28;20550;-58
2022/11/22 05:52:33;;;;;;;37.28;18.05;;;5.40;99.90;;;;;;5010891;28;20112;-56
2022/11/22 05:54:59;;;;;;;33.95;17.80;;;5.40;99.90;;;;;;5010508;28;20095;-56
2022/11/22 05:57:25;;;;;;;31.23;16.60;;;5.40;99.90;;;;;;5010914;28;20049;-57
2022/11/22 05:59:51;;;;;;;25.65;15.75;;;5.40;99.90;;;;;;5010522;28;20049;-57
2022/11/22 06:02:16;;;;;;;28.03;16.03;;;5.40;99.90;;;;;;5008928;28;20435;-59
2022/11/22 06:04:42;;;;;;;28.30;15.80;;;5.40;99.90;;;;;;5009878;28;20478;-56
2022/11/22 06:07:07;;;;;;;26.13;13.47;;;5.50;99.90;;;;;;5010959;28;20410;-59
2022/11/22 06:09:33;;;;;;;31.50;15.37;;;5.50;99.90;;;;;;5010893;28;20347;-56
2022/11/22 06:11:58;;;;;;;30.27;15.17;;;5.50;99.90;;;;;;5008822;28;20061;-59
2022/11/22 06:14:24;;;;;;;25.80;15.03;;;5.50;99.90;;;;;;5004704;28;20443;-59
2022/11/22 06:16:50;;;;;;;26.67;14.00;;;5.50;99.90;;;;;;4990615;28;20108;-60
2022/11/22 06:19:16;;;;;;;45.45;14.98;;;5.50;99.90;;;;;;4991241;28;20120;-57
2022/11/22 06:21:42;;;;;;;26.77;12.95;;;5.50;99.90;;;;;;4999119;28;20061;-57
2022/11/22 06:24:08;;;;;;;29.17;13.13;;;5.50;99.90;;;;;;5010003;28;20113;-60
2022/11/22 06:26:33;;;;;;;29.88;12.57;;;5.50;99.90;;;;;;5010403;28;20056;-59
2022/11/22 06:28:59;;;;;;;29.00;12.43;;;5.60;99.90;;;;;;5011048;28;20037;-59
2022/11/22 06:31:26;;;;;;;30.27;12.07;;;5.60;99.90;;;;;;5008802;28;20488;-54
2022/11/22 06:33:54;;;;;;;24.92;12.40;;;5.60;99.90;;;;;;4990852;28;20038;-59
2022/11/22 06:36:22;;;;;;;22.50;12.52;;;5.60;99.90;;;;;;4990401;28;20113;-60
2022/11/22 06:38:48;;;;;;;25.38;12.98;;;5.60;99.90;;;;;;4973514;28;20125;-61
2022/11/22 06:41:21;;;;;;;27.70;12.77;;;5.60;99.90;;;;;;4990701;28;20034;-59
2022/11/22 06:43:48;;;;;;;22.50;11.13;;;5.60;99.90;;;;;;4991568;28;20104;-57
2022/11/22 06:46:15;;;;;;;27.02;11.73;;;5.60;99.90;;;;;;4990973;28;20088;-57
2022/11/22 06:48:41;;;;;;;;;;;5.60;99.90;;;;;;4991123;28;20073;-56
2022/11/22 06:51:12;;;;;;;28.85;10.57;;;5.60;99.90;;;;;;4990747;28;19922;-57
2022/11/22 06:53:38;;;;;;;19.50;10.00;;;5.60;99.90;;;;;;5001086;28;20074;-58
2022/11/22 06:56:08;;;;;;;22.47;9.43;;;5.60;99.90;;;;;;5010328;28;20466;-58
2022/11/22 06:58:34;;;;;;;18.88;8.98;;;5.70;99.90;;;;;;5009585;28;20042;-56
2022/11/22 07:01:20;;;;;;;24.33;9.18;;;5.70;99.90;;;;;;5010586;28;20777;-56
2022/11/22 07:03:47;;;;;;;24.77;9.68;;;5.70;99.90;;;;;;5000099;28;20104;-57
2022/11/22 07:06:14;;;;;;;18.60;9.38;;;5.70;99.90;;;;;;4990569;28;20038;-57
2022/11/22 07:08:39;;;;;;;19.30;8.05;;;5.70;99.90;;;;;;4990974;28;20388;-57
2022/11/22 07:11:19;;;;;;;26.80;7.97;;;5.80;99.90;;;;;;4993065;28;20088;-56
2022/11/22 07:13:45;;;;;;;18.50;8.30;;;5.80;99.90;;;;;;4997867;28;20149;-55
2022/11/22 07:16:15;;;;;;;14.50;6.38;;;5.80;99.90;;;;;;4997327;28;20519;-54
2022/11/22 07:18:41;;;;;;;20.15;7.45;;;5.80;99.90;;;;;;4998583;28;20103;-58
2022/11/22 07:21:12;;;;;;;20.15;6.28;;;5.80;99.90;;;;;;5000730;28;20121;-56
2022/11/22 07:23:39;;;;;;;17.40;5.47;;;5.80;99.90;;;;;;5000038;28;20586;-54
2022/11/22 07:26:05;;;;;;;23.60;6.28;;;5.80;99.90;;;;;;5010024;28;20038;-58
2022/11/22 07:28:31;;;;;;;16.83;5.10;;;5.80;99.90;;;;;;4990669;28;20545;-56
2022/11/22 07:31:01;;;;;;;23.42;5.45;;;5.80;99.90;;;;;;4993451;28;20563;-57
2022/11/22 07:33:27;;;;;;;18.27;5.30;;;5.80;99.90;;;;;;4999878;28;20037;-59
2022/11/22 07:35:53;;;;;;;19.80;4.10;;;5.80;99.90;;;;;;4992871;28;20049;-58
2022/11/22 07:38:18;;;;;;;16.27;3.85;;;5.80;99.90;;;;;;4989824;28;20496;-56
2022/11/22 07:40:44;;;;;;;21.07;3.97;;;5.80;99.90;;;;;;4990289;28;20088;-57
2022/11/22 07:43:09;;;;;;;13.83;4.13;;;5.70;99.90;;;;;;4990265;28;20042;-58
2022/11/22 07:45:35;;;;;;;10.37;3.27;;;5.70;99.90;;;;;;5001895;28;20035;-53
2022/11/22 07:48:01;;;;;;;13.03;3.53;;;5.70;99.90;;;;;;4990682;28;20042;-56
2022/11/22 07:50:27;;;;;;;10.75;3.72;;;5.70;99.90;;;;;;4993821;28;20058;-56
2022/11/22 07:52:59;;;;;;;13.45;2.88;;;5.70;99.90;;;;;;4993398;28;20538;-59
2022/11/22 07:55:26;;;;;;;11.85;2.95;;;5.90;99.90;;;;;;4995048;28;20080;-57
2022/11/22 07:57:52;;;;;;;12.50;3.30;;;6.00;99.90;;;;;;5011709;28;20128;-57
2022/11/22 08:00:18;;;;;;;;;;;6.20;99.90;;;;;;5013301;28;20522;-58
2022/11/22 08:02:44;;;;;;;13.32;2.25;;;6.30;99.90;;;;;;5010432;28;19971;-58
2022/11/22 08:05:10;;;;;;;15.32;2.88;;;6.60;99.90;;;;;;5012448;28;20392;-60
2022/11/22 08:07:36;;;;;;;10.53;2.83;;;7.10;99.90;;;;;;5005085;28;20042;-56
2022/11/22 08:10:02;;;;;;;6.60;1.30;;;7.70;99.90;;;;;;5011342;28;20042;-57
2022/11/22 08:12:28;;;;;;;;;;;8.20;99.90;;;;;;4996371;28;20046;-57
2022/11/22 08:14:53;;;;;;;14.32;1.80;;;8.40;99.90;;;;;;4992800;28;20005;-59
2022/11/22 08:17:19;;;;;;;7.60;1.93;;;8.40;99.90;;;;;;4991710;28;20046;-59
2022/11/22 08:19:45;;;;;;;10.50;2.33;;;8.70;99.90;;;;;;5001046;28;20034;-58
2022/11/22 08:22:10;;;;;;;7.05;2.28;;;9.00;99.90;;;;;;5010411;28;20038;-57
2022/11/22 08:24:36;;;;;;;17.47;1.77;;;9.50;99.90;;;;;;5011768;28;20056;-56
2022/11/22 08:27:01;;;;;;;16.77;2.27;;;9.80;99.90;;;;;;4994454;28;20077;-59
2022/11/22 08:29:28;;;;;;;8.60;1.30;;;10.20;99.90;;;;;;5004489;28;20047;-57
2022/11/22 08:31:54;;;;;;;13.27;2.33;;;10.50;99.90;;;;;;5000261;28;20117;-57
2022/11/22 08:34:19;;;;;;;9.15;2.03;;;10.90;99.90;;;;;;5006282;28;20134;-59
2022/11/22 08:36:45;;;;;;;13.97;1.93;;;11.10;99.90;;;;;;4994525;28;20122;-59
2022/11/22 08:39:10;;;;;;;11.67;1.80;;;11.60;99.90;;;;;;4999316;28;20073;-55
2022/11/22 08:41:36;;;;;;;14.07;2.40;;;11.90;99.90;;;;;;5012488;28;20073;-57
2022/11/22 08:44:01;;;;;;;9.77;1.10;;;12.00;99.90;;;;;;5000851;28;20043;-55
2022/11/22 08:46:28;;;;;;;8.20;1.60;;;12.10;99.90;;;;;;4992698;28;20039;-57
2022/11/22 08:48:54;;;;;;;9.60;1.95;;;12.10;99.90;;;;;;4999697;28;20074;-56
2022/11/22 08:51:19;;;;;;;12.87;1.73;;;12.20;99.90;;;;;;4996284;28;20080;-59
2022/11/22 08:53:45;;;;;;;8.27;1.77;;;12.20;99.90;;;;;;5011456;28;20076;-59
2022/11/22 08:56:12;;;;;;;9.10;1.30;;;12.10;99.90;;;;;;4999305;28;20089;-60
2022/11/22 08:58:38;;;;;;;5.95;1.40;;;12.30;99.90;;;;;;5006998;28;20053;-60
2022/11/22 09:01:09;;;;;;;10.63;2.17;;;12.30;99.90;;;;;;4994410;28;20041;-57
2022/11/22 09:03:35;;;;;;;11.10;1.67;;;12.50;99.90;;;;;;5010014;28;20033;-52
2022/11/22 09:06:03;;;;;;;11.05;1.90;;;12.60;99.90;;;;;;5006508;28;20026;-51
2022/11/22 09:08:29;;;;;;;6.10;1.20;;;12.90;99.90;;;;;;5004814;28;20037;-56
2022/11/22 09:10:54;;;;;;;6.47;2.03;;;12.90;99.90;;;;;;5011042;28;20044;-52
2022/11/22 09:13:20;;;;;;;8.00;1.70;;;13.00;99.90;;;;;;5008446;28;20034;-59
2022/11/22 09:15:46;;;;;;;13.73;2.05;;;13.10;99.20;;;;;;4997197;28;20089;-56
2022/11/22 09:18:11;;;;;;;9.35;2.08;;;12.90;99.20;;;;;;5010525;28;20096;-57
2022/11/22 09:20:37;;;;;;;13.77;2.60;;;12.80;99.40;;;;;;5011827;28;20113;-56
2022/11/22 09:23:03;;;;;;;13.10;2.37;;;12.50;98.70;;;;;;5011347;28;20773;-56
2022/11/22 09:25:29;;;;;;;10.77;1.90;;;12.50;99.90;;;;;;5003599;28;20419;-57
2022/11/22 09:27:57;;;;;;;14.48;1.65;;;12.60;99.90;;;;;;4993013;28;20559;-58
2022/11/22 09:30:23;;;;;;;11.85;2.15;;;12.40;99.90;;;;;;4998418;28;20042;-57
2022/11/22 09:32:48;;;;;;;10.27;1.90;;;12.70;99.90;;;;;;5008820;28;20042;-58
2022/11/22 09:35:16;;;;;;;9.10;1.63;;;12.90;99.90;;;;;;4997408;28;20034;-56
2022/11/22 09:37:41;;;;;;;12.35;1.33;;;12.50;98.50;;;;;;4994335;28;20081;-59
2022/11/22 09:40:07;;;;;;;9.70;1.30;;;11.90;98.40;;;;;;4998696;28;20057;-60
2022/11/22 09:42:36;;;;;;;9.02;1.52;;;11.30;99.10;;;;;;4993895;28;20316;-56
2022/11/22 09:45:23;;;;;;;6.65;1.30;;;10.80;99.90;;;;;;4992432;28;20034;-59
2022/11/22 09:47:56;;;;;;;8.52;1.52;;;10.20;99.90;;;;;;4996617;28;20602;-55
2022/11/22 09:50:37;;;;;;;11.75;2.30;;;9.60;99.90;;;;;;4999991;28;20057;-58
2022/11/22 09:53:24;;;;;;;8.57;1.30;;;9.20;99.90;;;;;;4994517;28;20077;-57
2022/11/22 09:55:58;;;;;;;12.23;2.00;;;8.80;99.90;;;;;;4997533;28;20416;-59
2022/11/22 09:58:40;;;;;;;7.25;1.60;;;8.50;99.90;;;;;;4989992;28;20056;-59
2022/11/22 10:01:16;;;;;;;9.63;2.40;;;8.20;99.90;;;;;;4997545;28;20064;-61
2022/11/22 10:03:47;;;;;;;11.57;1.95;;;8.10;99.90;;;;;;4993544;28;20069;-59
2022/11/22 10:06:36;;;;;;;14.43;2.10;;;7.90;99.90;;;;;;4995881;28;20042;-60
2022/11/22 10:09:29;;;;;;;13.13;2.22;;;7.80;99.90;;;;;;4995978;28;20041;-61
2022/11/22 10:12:34;;;;;;;9.77;1.40;;;7.80;99.90;;;;;;4994615;28;20030;-59
2022/11/22 10:15:05;;;;;;;12.48;2.35;;;7.70;99.90;;;;;;4989408;28;20419;-55
2022/11/22 10:17:54;;;;;;;12.98;1.38;;;7.80;99.90;;;;;;4995392;28;20046;-56
2022/11/22 10:20:31;;;;;;;13.93;2.03;;;7.80;99.90;;;;;;4998543;28;20041;-55
2022/11/22 10:22:58;;;;;;;12.57;2.15;;;7.90;99.90;;;;;;4995787;28;20117;-58
2022/11/22 10:25:41;;;;;;;5.95;1.88;;;7.90;99.90;;;;;;4997529;28;20031;-60
2022/11/22 10:28:21;;;;;;;10.05;1.38;;;8.00;99.90;;;;;;4997041;28;20048;-59
2022/11/22 10:31:09;;;;;;;5.93;1.10;;;8.20;99.90;;;;;;4997334;28;20046;-57
2022/11/22 10:34:05;;;;;;;7.97;1.00;;;8.60;99.90;;;;;;4995349;28;20084;-59
2022/11/22 10:36:49;;;;;;;8.68;1.70;;;8.90;99.90;;;;;;4997903;28;20400;-60
2022/11/22 10:39:57;;;;;;;10.07;2.13;;;9.20;99.90;;;;;;4993600;28;20034;-58
2022/11/22 10:42:57;;;;;;;12.00;1.63;;;9.30;99.90;;;;;;4996958;28;20048;-53
2022/11/22 10:45:29;;;;;;;8.45;1.08;;;9.20;99.90;;;;;;4995050;28;20057;-59
2022/11/22 10:48:09;;;;;;;5.30;1.80;;;9.40;99.90;;;;;;4994041;28;20116;-58
2022/11/22 10:51:08;;;;;;;5.85;0.98;;;9.30;99.90;;;;;;4991115;28;20121;-62
2022/11/22 10:53:46;;;;;;;9.32;1.45;;;9.20;99.90;;;;;;4990026;28;20070;-55
2022/11/22 10:56:29;;;;;;;7.07;1.88;;;9.30;99.90;;;;;;4996390;28;20038;-60
2022/11/22 10:59:19;;;;;;;12.45;1.00;;;9.30;99.90;;;;;;4996162;28;20113;-56
2022/11/22 11:01:58;;;;;;;14.63;2.00;;;9.00;99.90;;;;;;4995846;28;20608;-60
2022/11/22 11:04:28;;;;;;;10.10;1.52;;;8.90;99.90;;;;;;4995842;28;20031;-59
2022/11/22 11:06:56;;;;;;;7.57;0.80;;;8.70;99.90;;;;;;4995105;28;20041;-61
2022/11/22 11:09:37;;;;;;;11.73;1.15;;;8.60;99.90;;;;;;5000965;28;20088;-56
2022/11/22 11:12:23;;;;;;;10.70;0.82;;;8.50;99.90;;;;;;4997310;28;20053;-62
2022/11/22 11:14:55;;;;;;;14.38;1.70;;;8.40;99.90;;;;;;4994373;28;20050;-61
2022/11/22 11:17:27;;;;;;;9.45;1.55;;;8.50;99.90;;;;;;4995112;28;20395;-56
2022/11/22 11:19:56;;;;;;;8.02;1.13;;;8.60;99.90;;;;;;4999047;28;20034;-59
2022/11/22 11:22:23;;;;;;;3.85;0.68;;;8.60;99.90;;;;;;4994961;28;20026;-59
2022/11/22 11:24:49;;;;;;;5.10;0.77;;;8.50;99.90;;;;;;5000291;28;20046;-56
2022/11/22 11:27:18;;;;;;;9.20;1.02;;;8.60;99.90;;;;;;5000136;28;20044;-58
2022/11/22 11:29:49;;;;;;;17.23;2.05;;;8.70;99.90;;;;;;5006884;28;20042;-59
2022/11/22 11:32:18;;;;;;;13.98;1.98;;;8.60;99.90;;;;;;5001108;28;20092;-55
2022/11/22 11:35:06;;;;;;;9.23;2.10;;;8.60;99.90;;;;;;5001390;28;20415;-55
2022/11/22 11:37:37;;;;;;;11.55;1.60;;;8.50;99.90;;;;;;4999327;28;20042;-56
2022/11/22 11:40:27;;;;;;;5.53;1.02;;;8.50;99.90;;;;;;5004339;28;20049;-56
2022/11/22 11:43:18;;;;;;;6.97;1.58;;;8.40;99.90;;;;;;4999622;28;20487;-56
2022/11/22 11:45:43;;;;;;;4.45;0.93;;;8.40;99.90;;;;;;5001424;28;20133;-56
2022/11/22 11:48:26;;;;;;;9.77;1.50;;;8.30;99.90;;;;;;5001465;28;20145;-55
2022/11/22 11:50:51;;;;;;;8.50;1.42;;;8.30;99.90;;;;;;4995484;28;20097;-56
2022/11/22 11:53:24;;;;;;;9.75;1.38;;;8.30;99.90;;;;;;4989088;28;20042;-57
2022/11/22 11:55:51;;;;;;;6.07;1.17;;;8.30;99.90;;;;;;4995073;28;20498;-59
2022/11/22 11:58:22;;;;;;;;;;;8.30;99.90;;;;;;4994619;28;20056;-59
2022/11/22 12:00:48;;;;;;;8.25;1.20;;;8.30;99.90;;;;;;5002697;28;20277;-56
2022/11/22 12:03:17;;;;;;;8.03;1.10;;;8.30;99.90;;;;;;4999141;28;20034;-56
2022/11/22 12:05:43;;;;;;;4.40;0.77;;;8.30;99.90;;;;;;4999855;28;20069;-56
2022/11/22 12:08:28;;;;;;;6.43;1.17;;;8.20;99.90;;;;;;4999664;28;20081;-59
2022/11/22 12:11:18;;;;;;;6.40;1.08;;;8.20;99.90;;;;;;5001754;28;20089;-55
2022/11/22 12:13:53;;;;;;;3.88;1.45;;;8.20;99.90;;;;;;4995367;28;20092;-56
2022/11/22 12:16:27;;;;;;;8.52;1.05;;;8.20;99.90;;;;;;4996502;28;20046;-59
2022/11/22 12:19:15;;;;;;;5.55;1.30;;;8.20;99.90;;;;;;4995773;28;20042;-56
2022/11/22 12:21:59;;;;;;;7.82;0.80;;;8.20;99.90;;;;;;4998240;28;20503;-56
2022/11/22 12:24:38;;;;;;;7.53;1.42;;;8.20;99.90;;;;;;4997572;28;20524;-54
2022/11/22 12:27:03;;;;;;;5.85;0.50;;;8.20;99.90;;;;;;4998938;28;20049;-59
2022/11/22 12:29:32;;;;;;;4.33;1.10;;;8.20;99.90;;;;;;5000559;28;20025;-56
2022/11/22 12:32:12;;;;;;;7.78;0.70;;;8.20;99.90;;;;;;4996491;28;20041;-55
2022/11/22 12:34:53;;;;;;;3.88;0.77;;;8.20;99.90;;;;;;4994723;28;20042;-59
2022/11/22 12:37:51;;;;;;;5.47;0.80;;;8.20;99.90;;;;;;4993834;28;20092;-61
2022/11/22 12:40:25;;;;;;;4.85;0.77;;;8.10;99.90;;;;;;4996256;28;20046;-56
2022/11/22 12:42:58;;;;;;;5.72;1.02;;;8.10;99.90;;;;;;4999810;28;20555;-54
2022/11/22 12:45:29;;;;;;;5.25;0.88;;;8.10;99.90;;;;;;4997056;28;20109;-59
2022/11/22 12:47:59;;;;;;;5.28;1.30;;;8.10;99.90;;;;;;4996588;28;20081;-57
2022/11/22 12:50:40;;;;;;;2.75;0.68;;;8.10;99.90;;;;;;4997964;28;20096;-58
2022/11/22 12:53:14;;;;;;;3.90;0.50;;;8.00;99.90;;;;;;4996990;28;20424;-56
2022/11/22 12:56:09;;;;;;;5.38;0.88;;;8.00;99.90;;;;;;5001842;28;20442;-55
2022/11/22 12:58:58;;;;;;;3.05;0.65;;;8.00;99.90;;;;;;4998671;28;20708;-55
2022/11/22 13:01:28;;;;;;;3.65;0.40;;;8.00;99.90;;;;;;5000164;28;20471;-58
2022/11/22 13:04:00;;;;;;;2.65;0.30;;;8.00;99.90;;;;;;4995657;28;20038;-57
2022/11/22 13:06:37;;;;;;;4.13;0.47;;;7.90;99.90;;;;;;4997414;28;20048;-56
2022/11/22 13:09:08;;;;;;;;;;;7.90;99.90;;;;;;4995803;28;20022;-62
2022/11/22 13:11:47;;;;;;;4.65;0.63;;;7.90;99.90;;;;;;4998575;28;19918;-55
2022/11/22 13:14:31;;;;;;;3.70;0.30;;;7.90;99.90;;;;;;4997475;28;20030;-54
2022/11/22 13:16:57;;;;;;;2.05;0.38;;;7.90;99.90;;;;;;4996951;28;20046;-59